sensor_id;sensor_type;location;lat;lon;timestamp;temperature;humidity
2439;DHT22;14509;47.992;7.848;2023-02-28T00:00:14;5.60;31.70
2439;DHT22;14509;47.992;7.848;2023-02-28T00:02:17;5.60;31.80
2439;DHT22;14509;47.992;7.848;2023-02-28T00:04:19;5.60;31.80
2439;DHT22;14509;47.992;7.848;2023-02-28T00:06:21;5.60;31.80
2439;DHT22;14509;47.992;7.848;2023-02-28T00:08:23;5.60;31.80
2439;DHT22;14509;47.992;7.848;2023-02-28T00:10:27;5.60;31.90
2439;DHT22;14509;47.992;7.848;2023-02-28T00:12:29;5.80;32.10
2439;DHT22;14509;47.992;7.848;2023-02-28T00:14:31;5.60;31.90
2439;DHT22;14509;47.992;7.848;2023-02-28T00:16:33;5.70;31.90
2439;DHT22;14509;47.992;7.848;2023-02-28T00:18:36;5.70;31.80
2439;DHT22;14509;47.992;7.848;2023-02-28T00:20:38;5.80;31.80
2439;DHT22;14509;47.992;7.848;2023-02-28T00:22:41;5.80;31.70
2439;DHT22;14509;47.992;7.848;2023-02-28T00:24:44;5.80;31.80
2439;DHT22;14509;47.992;7.848;2023-02-28T00:26:45;5.70;31.80
2439;DHT22;14509;47.992;7.848;2023-02-28T00:28:47;5.80;31.90
2439;DHT22;14509;47.992;7.848;2023-02-28T00:30:50;5.80;32.00
2439;DHT22;14509;47.992;7.848;2023-02-28T00:32:51;5.90;31.90
2439;DHT22;14509;47.992;7.848;2023-02-28T00:34:55;6.00;31.90
2439;DHT22;14509;47.992;7.848;2023-02-28T00:36:57;5.90;31.60
2439;DHT22;14509;47.992;7.848;2023-02-28T00:38:59;5.90;31.80
2439;DHT22;14509;47.992;7.848;2023-02-28T00:41:02;6.00;31.70
2439;DHT22;14509;47.992;7.848;2023-02-28T00:43:05;6.00;31.70
2439;DHT22;14509;47.992;7.848;2023-02-28T00:45:07;6.10;31.60
2439;DHT22;14509;47.992;7.848;2023-02-28T00:47:12;6.10;31.60
2439;DHT22;14509;47.992;7.848;2023-02-28T00:49:14;6.10;31.60
2439;DHT22;14509;47.992;7.848;2023-02-28T00:51:18;6.20;31.60
2439;DHT22;14509;47.992;7.848;2023-02-28T00:53:19;6.10;31.60
2439;DHT22;14509;47.992;7.848;2023-02-28T00:55:22;6.10;31.60
2439;DHT22;14509;47.992;7.848;2023-02-28T00:57:24;6.20;31.60
2439;DHT22;14509;47.992;7.848;2023-02-28T00:59:26;6.20;31.50
2439;DHT22;14509;47.992;7.848;2023-02-28T01:01:28;6.20;31.60
2439;DHT22;14509;47.992;7.848;2023-02-28T01:03:30;6.10;31.50
2439;DHT22;14509;47.992;7.848;2023-02-28T01:05:32;5.90;31.50
2439;DHT22;14509;47.992;7.848;2023-02-28T01:07:35;6.20;31.80
2439;DHT22;14509;47.992;7.848;2023-02-28T01:09:38;6.10;31.70
2439;DHT22;14509;47.992;7.848;2023-02-28T01:11:41;6.00;31.80
2439;DHT22;14509;47.992;7.848;2023-02-28T01:13:45;6.00;31.90
2439;DHT22;14509;47.992;7.848;2023-02-28T01:15:50;6.10;32.10
2439;DHT22;14509;47.992;7.848;2023-02-28T01:17:51;6.10;32.10
2439;DHT22;14509;47.992;7.848;2023-02-28T01:19:54;6.10;32.10
2439;DHT22;14509;47.992;7.848;2023-02-28T01:22:01;6.10;32.20
2439;DHT22;14509;47.992;7.848;2023-02-28T01:24:05;6.10;32.10
2439;DHT22;14509;47.992;7.848;2023-02-28T01:26:12;6.20;32.20
2439;DHT22;14509;47.992;7.848;2023-02-28T01:28:15;6.20;32.10
2439;DHT22;14509;47.992;7.848;2023-02-28T01:30:17;6.20;32.20
2439;DHT22;14509;47.992;7.848;2023-02-28T01:32:21;6.00;32.20
2439;DHT22;14509;47.992;7.848;2023-02-28T01:34:24;6.10;32.50
2439;DHT22;14509;47.992;7.848;2023-02-28T01:36:26;6.10;32.50
2439;DHT22;14509;47.992;7.848;2023-02-28T01:38:30;6.20;32.50
2439;DHT22;14509;47.992;7.848;2023-02-28T01:40:33;6.20;32.40
2439;DHT22;14509;47.992;7.848;2023-02-28T01:42:35;6.20;32.40
2439;DHT22;14509;47.992;7.848;2023-02-28T01:44:59;6.20;32.40
2439;DHT22;14509;47.992;7.848;2023-02-28T01:47:01;6.10;32.60
2439;DHT22;14509;47.992;7.848;2023-02-28T01:49:09;6.10;32.60
2439;DHT22;14509;47.992;7.848;2023-02-28T01:51:17;6.10;32.70
2439;DHT22;14509;47.992;7.848;2023-02-28T01:53:24;6.20;32.80
2439;DHT22;14509;47.992;7.848;2023-02-28T01:55:28;6.20;32.60
2439;DHT22;14509;47.992;7.848;2023-02-28T01:57:36;6.20;32.70
2439;DHT22;14509;47.992;7.848;2023-02-28T01:59:43;6.20;32.80
2439;DHT22;14509;47.992;7.848;2023-02-28T02:01:49;6.30;32.80
2439;DHT22;14509;47.992;7.848;2023-02-28T02:03:55;6.20;32.60
2439;DHT22;14509;47.992;7.848;2023-02-28T02:05:59;6.20;32.60
2439;DHT22;14509;47.992;7.848;2023-02-28T02:08:04;6.20;32.70
2439;DHT22;14509;47.992;7.848;2023-02-28T02:10:11;6.20;32.80
2439;DHT22;14509;47.992;7.848;2023-02-28T02:12:24;6.20;32.80
2439;DHT22;14509;47.992;7.848;2023-02-28T02:14:43;6.20;32.70
2439;DHT22;14509;47.992;7.848;2023-02-28T02:16:59;6.20;32.70
2439;DHT22;14509;47.992;7.848;2023-02-28T02:19:17;6.30;32.70
2439;DHT22;14509;47.992;7.848;2023-02-28T02:27:08;6.00;32.90
2439;DHT22;14509;47.992;7.848;2023-02-28T02:29:48;6.00;33.10
2439;DHT22;14509;47.992;7.848;2023-02-28T02:32:14;6.10;33.30
2439;DHT22;14509;47.992;7.848;2023-02-28T02:34:32;6.10;33.40
2439;DHT22;14509;47.992;7.848;2023-02-28T02:36:38;6.10;33.30
2439;DHT22;14509;47.992;7.848;2023-02-28T02:38:47;6.20;33.30
2439;DHT22;14509;47.992;7.848;2023-02-28T02:40:59;6.10;33.30
2439;DHT22;14509;47.992;7.848;2023-02-28T02:43:06;6.10;33.40
2439;DHT22;14509;47.992;7.848;2023-02-28T02:45:11;6.10;33.30
2439;DHT22;14509;47.992;7.848;2023-02-28T02:47:16;6.10;33.30
2439;DHT22;14509;47.992;7.848;2023-02-28T02:49:22;6.20;33.30
2439;DHT22;14509;47.992;7.848;2023-02-28T02:51:29;6.20;33.20
2439;DHT22;14509;47.992;7.848;2023-02-28T02:53:35;6.30;33.30
2439;DHT22;14509;47.992;7.848;2023-02-28T02:55:42;6.30;33.30
2439;DHT22;14509;47.992;7.848;2023-02-28T02:57:47;6.30;33.30
2439;DHT22;14509;47.992;7.848;2023-02-28T02:59:52;6.40;33.30
2439;DHT22;14509;47.992;7.848;2023-02-28T03:01:59;6.30;33.20
2439;DHT22;14509;47.992;7.848;2023-02-28T03:04:04;6.30;33.20
2439;DHT22;14509;47.992;7.848;2023-02-28T03:06:07;7.60;34.20
2439;DHT22;14509;47.992;7.848;2023-02-28T03:08:10;7.80;34.30
2439;DHT22;14509;47.992;7.848;2023-02-28T03:10:31;6.30;33.20
2439;DHT22;14509;47.992;7.848;2023-02-28T03:12:40;6.30;33.40
2439;DHT22;14509;47.992;7.848;2023-02-28T03:14:52;6.30;33.40
2439;DHT22;14509;47.992;7.848;2023-02-28T03:17:08;6.30;33.50
2439;DHT22;14509;47.992;7.848;2023-02-28T03:19:23;6.30;33.40
2439;DHT22;14509;47.992;7.848;2023-02-28T03:21:30;6.30;33.40
2439;DHT22;14509;47.992;7.848;2023-02-28T03:23:38;6.30;33.40
2439;DHT22;14509;47.992;7.848;2023-02-28T03:25:54;6.30;33.40
2439;DHT22;14509;47.992;7.848;2023-02-28T03:28:04;6.40;34.30
2439;DHT22;14509;47.992;7.848;2023-02-28T03:30:12;6.30;33.60
2439;DHT22;14509;47.992;7.848;2023-02-28T03:32:19;6.30;33.60
2439;DHT22;14509;47.992;7.848;2023-02-28T03:34:26;6.40;34.20
2439;DHT22;14509;47.992;7.848;2023-02-28T03:36:34;6.30;33.40
2439;DHT22;14509;47.992;7.848;2023-02-28T03:38:47;6.40;33.50
2439;DHT22;14509;47.992;7.848;2023-02-28T03:41:06;6.30;33.60
2439;DHT22;14509;47.992;7.848;2023-02-28T03:43:13;6.20;33.60
2439;DHT22;14509;47.992;7.848;2023-02-28T03:45:21;6.20;33.70
2439;DHT22;14509;47.992;7.848;2023-02-28T03:47:27;6.10;34.00
2439;DHT22;14509;47.992;7.848;2023-02-28T03:49:33;6.10;34.20
2439;DHT22;14509;47.992;7.848;2023-02-28T03:51:38;6.10;34.30
2439;DHT22;14509;47.992;7.848;2023-02-28T03:53:45;6.10;34.20
2439;DHT22;14509;47.992;7.848;2023-02-28T03:55:50;6.10;34.20
2439;DHT22;14509;47.992;7.848;2023-02-28T03:58:00;6.10;34.40
2439;DHT22;14509;47.992;7.848;2023-02-28T04:00:07;6.10;34.40
2439;DHT22;14509;47.992;7.848;2023-02-28T04:02:13;6.10;34.50
2439;DHT22;14509;47.992;7.848;2023-02-28T04:04:16;6.00;34.30
2439;DHT22;14509;47.992;7.848;2023-02-28T04:06:20;6.00;34.50
2439;DHT22;14509;47.992;7.848;2023-02-28T04:08:23;6.10;35.30
2439;DHT22;14509;47.992;7.848;2023-02-28T04:10:26;6.00;34.80
2439;DHT22;14509;47.992;7.848;2023-02-28T04:12:28;6.10;34.90
2439;DHT22;14509;47.992;7.848;2023-02-28T04:14:30;6.00;34.80
2439;DHT22;14509;47.992;7.848;2023-02-28T04:16:33;6.10;34.90
2439;DHT22;14509;47.992;7.848;2023-02-28T04:18:35;6.10;35.00
2439;DHT22;14509;47.992;7.848;2023-02-28T04:20:37;6.00;35.00
2439;DHT22;14509;47.992;7.848;2023-02-28T04:22:39;6.10;35.20
2439;DHT22;14509;47.992;7.848;2023-02-28T04:24:41;6.00;35.30
2439;DHT22;14509;47.992;7.848;2023-02-28T04:26:46;6.00;35.40
2439;DHT22;14509;47.992;7.848;2023-02-28T04:28:48;6.00;35.70
2439;DHT22;14509;47.992;7.848;2023-02-28T04:30:55;6.00;35.70
2439;DHT22;14509;47.992;7.848;2023-02-28T04:32:57;6.00;35.90
2439;DHT22;14509;47.992;7.848;2023-02-28T04:34:59;6.10;36.20
2439;DHT22;14509;47.992;7.848;2023-02-28T04:37:00;6.00;36.50
2439;DHT22;14509;47.992;7.848;2023-02-28T04:39:03;6.00;37.00
2439;DHT22;14509;47.992;7.848;2023-02-28T04:41:05;5.90;37.20
2439;DHT22;14509;47.992;7.848;2023-02-28T04:43:09;5.90;37.80
2439;DHT22;14509;47.992;7.848;2023-02-28T04:45:11;5.80;38.00
2439;DHT22;14509;47.992;7.848;2023-02-28T04:47:13;5.70;38.50
2439;DHT22;14509;47.992;7.848;2023-02-28T04:49:15;5.80;39.00
2439;DHT22;14509;47.992;7.848;2023-02-28T04:51:18;5.50;39.10
2439;DHT22;14509;47.992;7.848;2023-02-28T04:53:21;5.50;39.80
2439;DHT22;14509;47.992;7.848;2023-02-28T04:55:23;5.50;40.00
2439;DHT22;14509;47.992;7.848;2023-02-28T04:57:25;5.50;40.00
2439;DHT22;14509;47.992;7.848;2023-02-28T04:59:28;5.50;40.10
2439;DHT22;14509;47.992;7.848;2023-02-28T05:01:32;5.50;40.10
2439;DHT22;14509;47.992;7.848;2023-02-28T05:03:35;5.50;40.40
2439;DHT22;14509;47.992;7.848;2023-02-28T05:05:37;5.60;40.40
2439;DHT22;14509;47.992;7.848;2023-02-28T05:07:38;5.50;40.30
2439;DHT22;14509;47.992;7.848;2023-02-28T05:09:40;5.50;40.30
2439;DHT22;14509;47.992;7.848;2023-02-28T05:11:42;5.50;40.50
2439;DHT22;14509;47.992;7.848;2023-02-28T05:13:44;5.50;40.50
2439;DHT22;14509;47.992;7.848;2023-02-28T05:15:47;5.50;40.70
2439;DHT22;14509;47.992;7.848;2023-02-28T05:17:49;5.50;40.90
2439;DHT22;14509;47.992;7.848;2023-02-28T05:19:51;5.50;40.90
2439;DHT22;14509;47.992;7.848;2023-02-28T05:21:54;5.50;40.90
2439;DHT22;14509;47.992;7.848;2023-02-28T05:23:58;5.50;41.00
2439;DHT22;14509;47.992;7.848;2023-02-28T05:26:00;5.50;41.00
2439;DHT22;14509;47.992;7.848;2023-02-28T05:28:02;5.40;41.30
2439;DHT22;14509;47.992;7.848;2023-02-28T05:30:05;5.40;41.40
2439;DHT22;14509;47.992;7.848;2023-02-28T05:32:09;5.40;41.60
2439;DHT22;14509;47.992;7.848;2023-02-28T05:34:11;5.40;41.60
2439;DHT22;14509;47.992;7.848;2023-02-28T05:36:13;5.40;41.70
2439;DHT22;14509;47.992;7.848;2023-02-28T05:38:15;5.40;41.90
2439;DHT22;14509;47.992;7.848;2023-02-28T05:40:18;5.40;41.90
2439;DHT22;14509;47.992;7.848;2023-02-28T05:42:20;5.40;42.10
2439;DHT22;14509;47.992;7.848;2023-02-28T05:44:22;5.40;42.00
2439;DHT22;14509;47.992;7.848;2023-02-28T05:46:25;5.40;42.10
2439;DHT22;14509;47.992;7.848;2023-02-28T05:48:28;5.40;42.30
2439;DHT22;14509;47.992;7.848;2023-02-28T05:50:30;5.30;42.50
2439;DHT22;14509;47.992;7.848;2023-02-28T05:52:31;5.30;42.90
2439;DHT22;14509;47.992;7.848;2023-02-28T05:54:33;5.20;43.60
2439;DHT22;14509;47.992;7.848;2023-02-28T05:56:35;5.20;43.70
2439;DHT22;14509;47.992;7.848;2023-02-28T05:58:39;5.30;44.00
2439;DHT22;14509;47.992;7.848;2023-02-28T06:00:41;5.30;44.20
2439;DHT22;14509;47.992;7.848;2023-02-28T06:02:43;5.30;44.80
2439;DHT22;14509;47.992;7.848;2023-02-28T06:04:46;5.20;44.60
2439;DHT22;14509;47.992;7.848;2023-02-28T06:06:49;5.20;45.00
2439;DHT22;14509;47.992;7.848;2023-02-28T06:08:51;5.30;45.20
2439;DHT22;14509;47.992;7.848;2023-02-28T06:10:53;5.10;45.40
2439;DHT22;14509;47.992;7.848;2023-02-28T06:12:55;5.00;45.60
2439;DHT22;14509;47.992;7.848;2023-02-28T06:14:56;4.90;46.00
2439;DHT22;14509;47.992;7.848;2023-02-28T06:16:59;4.90;46.00
2439;DHT22;14509;47.992;7.848;2023-02-28T06:19:03;4.90;46.20
2439;DHT22;14509;47.992;7.848;2023-02-28T06:21:06;4.80;46.10
2439;DHT22;14509;47.992;7.848;2023-02-28T06:23:09;4.80;46.30
2439;DHT22;14509;47.992;7.848;2023-02-28T06:25:11;4.80;46.40
2439;DHT22;14509;47.992;7.848;2023-02-28T06:27:13;4.80;46.50
2439;DHT22;14509;47.992;7.848;2023-02-28T06:29:15;4.80;46.40
2439;DHT22;14509;47.992;7.848;2023-02-28T06:31:19;4.70;46.30
2439;DHT22;14509;47.992;7.848;2023-02-28T06:33:21;4.70;46.10
2439;DHT22;14509;47.992;7.848;2023-02-28T06:35:23;4.70;46.30
2439;DHT22;14509;47.992;7.848;2023-02-28T06:37:26;4.70;46.60
2439;DHT22;14509;47.992;7.848;2023-02-28T06:39:28;4.70;46.60
2439;DHT22;14509;47.992;7.848;2023-02-28T06:41:30;4.70;46.40
2439;DHT22;14509;47.992;7.848;2023-02-28T06:43:34;4.70;46.50
2439;DHT22;14509;47.992;7.848;2023-02-28T06:45:36;4.80;46.60
2439;DHT22;14509;47.992;7.848;2023-02-28T06:47:39;4.80;46.30
2439;DHT22;14509;47.992;7.848;2023-02-28T06:49:41;4.80;46.40
2439;DHT22;14509;47.992;7.848;2023-02-28T06:51:45;4.80;46.20
2439;DHT22;14509;47.992;7.848;2023-02-28T06:53:48;4.80;46.10
2439;DHT22;14509;47.992;7.848;2023-02-28T06:55:50;4.90;46.10
2439;DHT22;14509;47.992;7.848;2023-02-28T06:57:52;4.90;46.00
2439;DHT22;14509;47.992;7.848;2023-02-28T06:59:55;4.90;45.80
2439;DHT22;14509;47.992;7.848;2023-02-28T07:01:57;5.10;45.90
2439;DHT22;14509;47.992;7.848;2023-02-28T07:03:59;5.00;45.80
2439;DHT22;14509;47.992;7.848;2023-02-28T07:06:02;5.20;46.40
2439;DHT22;14509;47.992;7.848;2023-02-28T07:08:05;4.80;45.40
2439;DHT22;14509;47.992;7.848;2023-02-28T07:10:10;5.20;45.60
2439;DHT22;14509;47.992;7.848;2023-02-28T07:12:13;5.30;45.50
2439;DHT22;14509;47.992;7.848;2023-02-28T07:14:15;5.30;45.00
2439;DHT22;14509;47.992;7.848;2023-02-28T07:16:17;5.30;44.80
2439;DHT22;14509;47.992;7.848;2023-02-28T07:18:19;5.30;44.80
2439;DHT22;14509;47.992;7.848;2023-02-28T07:20:21;5.40;44.80
2439;DHT22;14509;47.992;7.848;2023-02-28T07:22:23;5.40;44.60
2439;DHT22;14509;47.992;7.848;2023-02-28T07:24:25;5.40;44.60
2439;DHT22;14509;47.992;7.848;2023-02-28T07:26:30;5.70;44.70
2439;DHT22;14509;47.992;7.848;2023-02-28T07:28:34;5.50;44.40
2439;DHT22;14509;47.992;7.848;2023-02-28T07:30:36;5.50;44.30
2439;DHT22;14509;47.992;7.848;2023-02-28T07:32:38;7.10;45.60
2439;DHT22;14509;47.992;7.848;2023-02-28T07:34:40;5.60;44.50
2439;DHT22;14509;47.992;7.848;2023-02-28T07:36:42;5.60;44.40
2439;DHT22;14509;47.992;7.848;2023-02-28T07:38:45;5.70;44.20
2439;DHT22;14509;47.992;7.848;2023-02-28T07:40:48;6.30;44.40
2439;DHT22;14509;47.992;7.848;2023-02-28T07:42:52;5.90;43.80
2439;DHT22;14509;47.992;7.848;2023-02-28T07:44:54;5.70;43.90
2439;DHT22;14509;47.992;7.848;2023-02-28T07:46:56;6.00;44.20
2439;DHT22;14509;47.992;7.848;2023-02-28T07:48:58;6.00;44.00
2439;DHT22;14509;47.992;7.848;2023-02-28T07:51:01;6.20;43.70
2439;DHT22;14509;47.992;7.848;2023-02-28T07:53:03;6.40;43.30
2439;DHT22;14509;47.992;7.848;2023-02-28T07:55:08;6.50;42.70
2439;DHT22;14509;47.992;7.848;2023-02-28T07:57:10;6.60;42.70
2439;DHT22;14509;47.992;7.848;2023-02-28T07:59:13;6.70;42.20
2439;DHT22;14509;47.992;7.848;2023-02-28T08:01:16;6.90;41.90
2439;DHT22;14509;47.992;7.848;2023-02-28T08:03:21;7.00;41.70
2439;DHT22;14509;47.992;7.848;2023-02-28T08:05:23;7.10;41.50
2439;DHT22;14509;47.992;7.848;2023-02-28T08:07:26;7.40;41.10
2439;DHT22;14509;47.992;7.848;2023-02-28T08:09:28;7.30;40.60
2439;DHT22;14509;47.992;7.848;2023-02-28T08:11:30;7.30;40.50
2439;DHT22;14509;47.992;7.848;2023-02-28T08:13:33;7.30;39.90
2439;DHT22;14509;47.992;7.848;2023-02-28T08:15:38;7.70;39.60
2439;DHT22;14509;47.992;7.848;2023-02-28T08:17:40;7.30;39.60
2439;DHT22;14509;47.992;7.848;2023-02-28T08:19:42;7.30;39.70
2439;DHT22;14509;47.992;7.848;2023-02-28T08:21:46;7.30;39.80
2439;DHT22;14509;47.992;7.848;2023-02-28T08:23:52;7.40;39.80
2439;DHT22;14509;47.992;7.848;2023-02-28T08:25:54;7.50;39.10
2439;DHT22;14509;47.992;7.848;2023-02-28T08:28:02;7.60;39.10
2439;DHT22;14509;47.992;7.848;2023-02-28T08:30:05;7.60;39.00
2439;DHT22;14509;47.992;7.848;2023-02-28T08:32:08;7.60;38.70
2439;DHT22;14509;47.992;7.848;2023-02-28T08:34:13;7.60;37.90
2439;DHT22;14509;47.992;7.848;2023-02-28T08:36:15;7.90;38.30
2439;DHT22;14509;47.992;7.848;2023-02-28T08:38:17;7.60;38.20
2439;DHT22;14509;47.992;7.848;2023-02-28T08:40:21;7.70;38.60
2439;DHT22;14509;47.992;7.848;2023-02-28T08:42:33;7.70;38.40
2439;DHT22;14509;47.992;7.848;2023-02-28T08:44:38;7.80;38.20
2439;DHT22;14509;47.992;7.848;2023-02-28T08:46:49;7.80;38.20
2439;DHT22;14509;47.992;7.848;2023-02-28T08:49:01;7.80;38.10
2439;DHT22;14509;47.992;7.848;2023-02-28T08:51:12;8.00;38.00
2439;DHT22;14509;47.992;7.848;2023-02-28T08:53:17;8.20;38.40
2439;DHT22;14509;47.992;7.848;2023-02-28T08:55:19;8.30;36.80
2439;DHT22;14509;47.992;7.848;2023-02-28T08:57:25;8.80;36.00
2439;DHT22;14509;47.992;7.848;2023-02-28T08:59:29;8.50;35.70
2439;DHT22;14509;47.992;7.848;2023-02-28T09:01:31;8.70;36.00
2439;DHT22;14509;47.992;7.848;2023-02-28T09:03:45;8.80;35.50
2439;DHT22;14509;47.992;7.848;2023-02-28T09:05:54;8.80;34.40
2439;DHT22;14509;47.992;7.848;2023-02-28T09:07:58;9.20;34.60
2439;DHT22;14509;47.992;7.848;2023-02-28T09:10:00;9.40;33.60
2439;DHT22;14509;47.992;7.848;2023-02-28T09:12:03;9.40;33.20
2439;DHT22;14509;47.992;7.848;2023-02-28T09:14:09;9.60;32.10
2439;DHT22;14509;47.992;7.848;2023-02-28T09:16:13;9.80;31.70
2439;DHT22;14509;47.992;7.848;2023-02-28T09:18:15;9.80;31.10
2439;DHT22;14509;47.992;7.848;2023-02-28T09:20:18;9.90;31.00
2439;DHT22;14509;47.992;7.848;2023-02-28T09:22:22;10.00;30.10
2439;DHT22;14509;47.992;7.848;2023-02-28T09:24:25;10.00;29.60
2439;DHT22;14509;47.992;7.848;2023-02-28T09:26:28;10.00;29.60
2439;DHT22;14509;47.992;7.848;2023-02-28T09:28:30;10.10;29.60
2439;DHT22;14509;47.992;7.848;2023-02-28T09:30:38;10.20;29.40
2439;DHT22;14509;47.992;7.848;2023-02-28T09:32:55;9.70;30.00
2439;DHT22;14509;47.992;7.848;2023-02-28T09:35:00;9.80;30.00
2439;DHT22;14509;47.992;7.848;2023-02-28T09:37:06;10.20;29.80
2439;DHT22;14509;47.992;7.848;2023-02-28T09:39:13;9.60;30.40
2439;DHT22;14509;47.992;7.848;2023-02-28T09:41:17;9.70;30.60
2439;DHT22;14509;47.992;7.848;2023-02-28T09:43:26;9.70;30.80
2439;DHT22;14509;47.992;7.848;2023-02-28T09:45:38;9.70;30.80
2439;DHT22;14509;47.992;7.848;2023-02-28T09:47:48;9.70;30.60
2439;DHT22;14509;47.992;7.848;2023-02-28T09:49:59;9.70;30.90
2439;DHT22;14509;47.992;7.848;2023-02-28T09:52:08;9.60;30.60
2439;DHT22;14509;47.992;7.848;2023-02-28T09:54:30;9.60;30.70
2439;DHT22;14509;47.992;7.848;2023-02-28T09:56:36;9.60;30.70
2439;DHT22;14509;47.992;7.848;2023-02-28T09:58:48;9.60;31.00
2439;DHT22;14509;47.992;7.848;2023-02-28T10:01:00;9.50;31.00
2439;DHT22;14509;47.992;7.848;2023-02-28T10:03:20;9.40;31.30
2439;DHT22;14509;47.992;7.848;2023-02-28T10:05:30;9.40;31.40
2439;DHT22;14509;47.992;7.848;2023-02-28T10:07:54;9.40;31.30
2439;DHT22;14509;47.992;7.848;2023-02-28T10:10:06;9.40;31.20
2439;DHT22;14509;47.992;7.848;2023-02-28T10:12:18;9.50;31.00
2439;DHT22;14509;47.992;7.848;2023-02-28T10:14:45;9.50;31.00
2439;DHT22;14509;47.992;7.848;2023-02-28T10:17:01;9.60;31.30
2439;DHT22;14509;47.992;7.848;2023-02-28T10:19:15;9.60;31.40
2439;DHT22;14509;47.992;7.848;2023-02-28T10:21:23;9.60;31.10
2439;DHT22;14509;47.992;7.848;2023-02-28T10:23:31;9.70;31.10
2439;DHT22;14509;47.992;7.848;2023-02-28T10:25:37;9.90;31.00
2439;DHT22;14509;47.992;7.848;2023-02-28T10:27:39;9.90;30.90
2439;DHT22;14509;47.992;7.848;2023-02-28T10:29:45;9.90;30.20
2439;DHT22;14509;47.992;7.848;2023-02-28T10:31:48;10.00;29.80
2439;DHT22;14509;47.992;7.848;2023-02-28T10:33:50;9.90;30.20
2439;DHT22;14509;47.992;7.848;2023-02-28T10:35:53;10.20;29.80
2439;DHT22;14509;47.992;7.848;2023-02-28T10:38:03;10.30;29.60
2439;DHT22;14509;47.992;7.848;2023-02-28T10:40:52;10.40;30.10
2439;DHT22;14509;47.992;7.848;2023-02-28T10:43:18;10.40;29.60
2439;DHT22;14509;47.992;7.848;2023-02-28T10:45:26;10.40;29.50
2439;DHT22;14509;47.992;7.848;2023-02-28T10:47:30;10.60;29.50
2439;DHT22;14509;47.992;7.848;2023-02-28T10:49:34;10.60;29.10
2439;DHT22;14509;47.992;7.848;2023-02-28T10:51:50;10.70;29.10
2439;DHT22;14509;47.992;7.848;2023-02-28T10:53:55;10.70;29.10
2439;DHT22;14509;47.992;7.848;2023-02-28T10:56:02;10.70;28.90
2439;DHT22;14509;47.992;7.848;2023-02-28T10:58:20;10.80;29.00
2439;DHT22;14509;47.992;7.848;2023-02-28T11:00:24;10.70;29.20
2439;DHT22;14509;47.992;7.848;2023-02-28T11:05:29;10.90;28.80
2439;DHT22;14509;47.992;7.848;2023-02-28T11:07:35;11.00;28.70
2439;DHT22;14509;47.992;7.848;2023-02-28T11:09:41;11.10;28.70
2439;DHT22;14509;47.992;7.848;2023-02-28T11:12:02;11.50;28.60
2439;DHT22;14509;47.992;7.848;2023-02-28T11:14:20;11.30;28.50
2439;DHT22;14509;47.992;7.848;2023-02-28T11:16:35;11.40;28.50
2439;DHT22;14509;47.992;7.848;2023-02-28T11:18:52;11.70;28.40
2439;DHT22;14509;47.992;7.848;2023-02-28T11:21:00;11.70;28.30
2439;DHT22;14509;47.992;7.848;2023-02-28T11:23:25;11.50;28.10
2439;DHT22;14509;47.992;7.848;2023-02-28T11:25:46;11.70;28.20
2439;DHT22;14509;47.992;7.848;2023-02-28T11:28:04;11.90;28.20
2439;DHT22;14509;47.992;7.848;2023-02-28T11:30:39;11.80;27.90
2439;DHT22;14509;47.992;7.848;2023-02-28T11:32:48;11.80;27.90
2439;DHT22;14509;47.992;7.848;2023-02-28T11:35:01;12.00;28.00
2439;DHT22;14509;47.992;7.848;2023-02-28T11:37:15;11.80;28.20
2439;DHT22;14509;47.992;7.848;2023-02-28T11:39:38;11.80;28.00
2439;DHT22;14509;47.992;7.848;2023-02-28T11:42:04;11.90;27.90
2439;DHT22;14509;47.992;7.848;2023-02-28T11:44:54;12.00;27.90
2439;DHT22;14509;47.992;7.848;2023-02-28T11:47:07;11.90;27.70
2439;DHT22;14509;47.992;7.848;2023-02-28T11:49:31;12.10;27.80
2439;DHT22;14509;47.992;7.848;2023-02-28T11:51:50;12.00;27.60
2439;DHT22;14509;47.992;7.848;2023-02-28T11:54:40;11.90;27.60
2439;DHT22;14509;47.992;7.848;2023-02-28T11:57:00;11.70;27.80
2439;DHT22;14509;47.992;7.848;2023-02-28T11:59:35;11.10;27.90
2439;DHT22;14509;47.992;7.848;2023-02-28T12:02:25;11.50;28.30
2439;DHT22;14509;47.992;7.848;2023-02-28T12:04:35;11.50;28.40
2439;DHT22;14509;47.992;7.848;2023-02-28T12:07:30;11.30;28.60
2439;DHT22;14509;47.992;7.848;2023-02-28T12:10:04;11.20;28.70
2439;DHT22;14509;47.992;7.848;2023-02-28T12:12:19;11.10;28.50
2439;DHT22;14509;47.992;7.848;2023-02-28T12:14:50;11.30;28.70
2439;DHT22;14509;47.992;7.848;2023-02-28T12:17:08;11.70;28.70
2439;DHT22;14509;47.992;7.848;2023-02-28T12:19:21;11.50;28.50
2439;DHT22;14509;47.992;7.848;2023-02-28T12:21:37;11.50;28.40
2439;DHT22;14509;47.992;7.848;2023-02-28T12:24:24;11.60;28.50
2439;DHT22;14509;47.992;7.848;2023-02-28T12:26:36;11.60;28.50
2439;DHT22;14509;47.992;7.848;2023-02-28T12:28:49;11.70;28.30
2439;DHT22;14509;47.992;7.848;2023-02-28T12:30:56;11.60;28.10
2439;DHT22;14509;47.992;7.848;2023-02-28T12:33:16;11.80;28.10
2439;DHT22;14509;47.992;7.848;2023-02-28T12:35:26;11.80;28.20
2439;DHT22;14509;47.992;7.848;2023-02-28T12:37:37;11.80;28.20
2439;DHT22;14509;47.992;7.848;2023-02-28T12:39:48;11.80;28.20
2439;DHT22;14509;47.992;7.848;2023-02-28T12:42:07;11.80;28.20
2439;DHT22;14509;47.992;7.848;2023-02-28T12:44:23;11.40;28.00
2439;DHT22;14509;47.992;7.848;2023-02-28T12:46:36;11.80;28.20
2439;DHT22;14509;47.992;7.848;2023-02-28T12:48:46;12.20;28.40
2439;DHT22;14509;47.992;7.848;2023-02-28T12:51:08;11.90;28.40
2439;DHT22;14509;47.992;7.848;2023-02-28T12:53:23;12.00;28.20
2439;DHT22;14509;47.992;7.848;2023-02-28T12:55:43;12.20;28.00
2439;DHT22;14509;47.992;7.848;2023-02-28T12:57:52;12.20;27.80
2439;DHT22;14509;47.992;7.848;2023-02-28T13:00:31;12.20;27.80
2439;DHT22;14509;47.992;7.848;2023-02-28T13:03:12;12.40;27.80
2439;DHT22;14509;47.992;7.848;2023-02-28T13:05:58;12.50;27.80
2439;DHT22;14509;47.992;7.848;2023-02-28T13:09:10;12.70;27.50
2439;DHT22;14509;47.992;7.848;2023-02-28T13:11:52;12.60;27.30
2439;DHT22;14509;47.992;7.848;2023-02-28T13:14:28;12.70;27.40
2439;DHT22;14509;47.992;7.848;2023-02-28T13:16:51;12.80;27.30
2439;DHT22;14509;47.992;7.848;2023-02-28T13:19:11;12.70;27.30
2439;DHT22;14509;47.992;7.848;2023-02-28T13:24:44;12.50;27.50
2439;DHT22;14509;47.992;7.848;2023-02-28T13:55:29;13.50;26.90
2439;DHT22;14509;47.992;7.848;2023-02-28T13:57:44;13.50;26.50
2439;DHT22;14509;47.992;7.848;2023-02-28T13:59:56;13.50;26.50
2439;DHT22;14509;47.992;7.848;2023-02-28T14:02:23;13.30;26.50
2439;DHT22;14509;47.992;7.848;2023-02-28T14:04:55;13.20;26.80
2439;DHT22;14509;47.992;7.848;2023-02-28T14:06:59;13.00;27.00
2439;DHT22;14509;47.992;7.848;2023-02-28T14:09:06;12.90;27.30
2439;DHT22;14509;47.992;7.848;2023-02-28T14:11:26;13.20;27.50
2439;DHT22;14509;47.992;7.848;2023-02-28T14:13:41;12.90;27.40
2439;DHT22;14509;47.992;7.848;2023-02-28T14:15:56;12.90;27.50
2439;DHT22;14509;47.992;7.848;2023-02-28T14:18:00;13.20;27.50
2439;DHT22;14509;47.992;7.848;2023-02-28T14:20:03;13.00;27.30
2439;DHT22;14509;47.992;7.848;2023-02-28T14:22:13;13.00;27.30
2439;DHT22;14509;47.992;7.848;2023-02-28T14:27:00;13.10;27.40
2439;DHT22;14509;47.992;7.848;2023-02-28T14:29:21;13.20;27.40
2439;DHT22;14509;47.992;7.848;2023-02-28T14:31:29;13.30;27.40
2439;DHT22;14509;47.992;7.848;2023-02-28T14:33:59;13.50;27.50
2439;DHT22;14509;47.992;7.848;2023-02-28T15:45:33;13.00;27.50